Time;durP1;ratioP1;P1;durP2;ratioP2;P2;SDS_P1;SDS_P2;PMS_P1;PMS_P2;Temp;Humidity;BMP_temperature;BMP_pressure;BME280_temperature;BME280_humidity;BME280_pressure;Samples;Min_cycle;Max_cycle;Signal;HPM_P1;HPM_P2
2021/08/10 00:00:47;;;;;;;16.00;8.32;;;;;;;14.49;81.60;100380.47;5084758;28;20021;-68
2021/08/10 00:03:13;;;;;;;12.45;7.60;;;;;;;14.45;81.53;100386.66;5084636;28;20024;-67
2021/08/10 00:05:39;;;;;;;18.00;8.27;;;;;;;14.44;81.67;100384.09;5083407;28;20165;-67
2021/08/10 00:08:04;;;;;;;13.63;8.57;;;;;;;14.36;81.68;100387.75;5083223;28;20025;-68
2021/08/10 00:10:30;;;;;;;12.00;7.50;;;;;;;14.32;82.00;100372.19;5084349;28;20025;-68
2021/08/10 00:12:56;;;;;;;11.75;6.78;;;;;;;14.30;82.01;100382.69;5083201;28;20039;-67
2021/08/10 00:15:21;;;;;;;12.57;7.20;;;;;;;14.31;82.19;100384.41;5082871;28;20029;-68
2021/08/10 00:17:46;;;;;;;11.88;6.45;;;;;;;14.26;82.29;100373.22;5084140;28;20048;-70
2021/08/10 00:20:12;;;;;;;14.18;6.35;;;;;;;14.29;82.29;100383.56;5082001;28;20048;-69
2021/08/10 00:22:38;;;;;;;13.02;7.03;;;;;;;14.27;82.31;100374.91;5084490;28;20027;-68
2021/08/10 00:25:04;;;;;;;11.10;6.40;;;;;;;14.29;82.34;100391.41;5084274;28;20020;-68
2021/08/10 00:27:30;;;;;;;10.15;6.82;;;;;;;14.30;82.33;100392.25;5084208;28;20020;-68
2021/08/10 00:29:55;;;;;;;12.05;7.38;;;;;;;14.32;82.17;100399.16;5083927;28;20487;-69
2021/08/10 00:32:20;;;;;;;11.48;6.00;;;;;;;14.30;82.23;100390.50;5082818;28;20041;-69
2021/08/10 00:34:46;;;;;;;8.73;5.65;;;;;;;14.30;82.35;100393.13;5083868;28;20024;-68
2021/08/10 00:37:11;;;;;;;12.27;6.07;;;;;;;14.31;81.96;100392.25;5084094;28;20059;-69
2021/08/10 00:39:37;;;;;;;9.05;5.57;;;;;;;14.31;81.95;100386.16;5083689;28;20393;-69
2021/08/10 00:42:03;;;;;;;10.18;5.38;;;;;;;14.29;81.88;100382.72;5084001;28;20133;-69
2021/08/10 00:44:29;;;;;;;10.30;5.05;;;;;;;14.30;82.20;100387.03;5084044;28;20024;-68
2021/08/10 00:46:54;;;;;;;8.43;4.72;;;;;;;14.25;81.64;100382.78;5083563;28;20103;-68
2021/08/10 00:49:20;;;;;;;10.00;4.80;;;;;;;14.28;81.70;100394.06;5083784;28;20047;-68
2021/08/10 00:51:48;;;;;;;9.75;5.30;;;;;;;14.23;81.47;100391.56;5083898;28;20024;-69
2021/08/10 00:54:14;;;;;;;7.90;4.47;;;;;;;14.28;81.15;100388.84;5083798;28;20024;-68
2021/08/10 00:56:41;;;;;;;10.18;5.45;;;;;;;14.23;81.00;100386.34;5083784;28;20032;-69
2021/08/10 00:59:06;;;;;;;6.47;4.30;;;;;;;14.25;81.31;100398.44;5083526;28;20042;-69
2021/08/10 01:01:32;;;;;;;7.28;4.43;;;;;;;14.19;81.49;100380.31;5083594;28;20544;-69
2021/08/10 01:03:57;;;;;;;14.85;5.88;;;;;;;14.25;81.31;100381.91;5083503;28;20048;-69
2021/08/10 01:06:36;;;;;;;9.45;5.32;;;;;;;14.24;81.48;100390.66;5083676;28;20032;-69
2021/08/10 01:09:13;;;;;;;9.68;5.03;;;;;;;14.22;81.58;100382.88;5083483;28;20025;-69
2021/08/10 01:11:42;;;;;;;12.55;6.93;;;;;;;14.17;81.87;100383.88;5083607;28;20031;-69
2021/08/10 01:14:24;;;;;;;8.90;5.05;;;;;;;14.17;81.72;100381.28;5083486;28;20567;-69
2021/08/10 01:17:03;;;;;;;12.80;6.05;;;;;;;14.19;81.87;100382.94;5081717;28;20029;-69
2021/08/10 01:19:44;;;;;;;8.77;5.55;;;;;;;14.17;81.79;100381.28;5083405;28;20025;-68
2021/08/10 01:22:13;;;;;;;13.50;5.25;;;;;;;14.18;81.84;100382.97;5083509;28;20021;-68
2021/08/10 01:24:45;;;;;;;9.50;5.65;;;;;;;14.11;82.09;100374.41;5083401;28;20027;-68
2021/08/10 01:27:30;;;;;;;9.27;5.70;;;;;;;14.15;82.02;100381.31;5083494;28;20026;-69
2021/08/10 01:30:12;;;;;;;10.70;6.10;;;;;;;14.17;82.08;100386.50;5082750;28;20016;-67
2021/08/10 01:32:40;;;;;;;10.02;6.07;;;;;;;14.10;82.32;100384.03;5083326;28;20477;-68
2021/08/10 01:35:07;;;;;;;9.65;6.55;;;;;;;14.12;82.22;100377.00;5083181;28;20059;-68
2021/08/10 01:37:34;;;;;;;10.95;5.63;;;;;;;14.18;82.09;100376.00;5083166;28;20472;-67
2021/08/10 01:40:08;;;;;;;12.13;6.65;;;;;;;14.12;82.23;100387.44;5083329;28;20024;-69
2021/08/10 01:42:37;;;;;;;13.05;5.47;;;;;;;14.10;82.45;100381.41;5083274;28;20024;-68
2021/08/10 01:45:03;;;;;;;9.23;6.07;;;;;;;14.06;82.76;100377.16;5083015;28;20025;-68
2021/08/10 01:47:32;;;;;;;13.45;6.20;;;;;;;14.07;82.86;100383.22;5082043;28;20044;-68
2021/08/10 01:50:00;;;;;;;12.35;6.50;;;;;;;14.05;82.88;100383.28;5081572;28;20050;-68
2021/08/10 01:52:26;;;;;;;13.25;7.18;;;;;;;14.04;83.21;100383.31;5083375;28;20341;-68
2021/08/10 01:54:53;;;;;;;10.23;7.28;;;;;;;14.05;83.16;100380.66;5083018;28;20024;-68
2021/08/10 01:57:19;;;;;;;13.82;6.95;;;;;;;14.03;83.37;100374.59;5083074;28;20020;-68
2021/08/10 01:59:47;;;;;;;9.88;6.97;;;;;;;14.05;83.46;100372.81;5082889;28;20029;-68
2021/08/10 02:02:12;;;;;;;11.10;6.63;;;;;;;14.05;83.38;100369.34;5082890;28;20154;-68
2021/08/10 02:04:40;;;;;;;12.68;7.63;;;;;;;14.13;83.29;100367.41;5083026;28;20036;-68
2021/08/10 02:07:05;;;;;;;15.88;7.60;;;;;;;14.09;83.65;100377.06;5082990;28;20017;-69
2021/08/10 02:09:33;;;;;;;11.50;7.95;;;;;;;14.07;83.65;100367.56;5081540;28;20130;-68
2021/08/10 02:12:01;;;;;;;16.67;8.63;;;;;;;14.06;83.81;100361.47;5083170;28;20115;-68
2021/08/10 02:14:27;;;;;;;13.60;8.40;;;;;;;14.08;84.02;100362.31;5082953;28;20067;-68
2021/08/10 02:16:57;;;;;;;13.00;7.00;;;;;;;14.07;84.19;100367.56;5082596;28;20111;-67
2021/08/10 02:19:22;;;;;;;14.82;7.60;;;;;;;14.10;84.36;100368.38;5082936;28;20020;-68
2021/08/10 02:21:51;;;;;;;22.85;8.93;;;;;;;14.09;84.64;100358.78;5082783;28;20044;-68
2021/08/10 02:24:24;;;;;;;13.70;8.50;;;;;;;14.20;84.51;100365.53;5082747;28;20381;-67
2021/08/10 02:26:57;;;;;;;12.02;7.40;;;;;;;14.20;84.80;100360.31;5081474;28;20384;-68
2021/08/10 02:29:26;;;;;;;20.00;8.80;;;;;;;14.22;84.76;100374.16;5081535;28;20047;-68
2021/08/10 02:31:52;;;;;;;14.57;8.55;;;;;;;14.22;84.70;100376.78;5082792;28;20076;-68
2021/08/10 02:34:20;;;;;;;18.15;7.55;;;;;;;14.25;84.71;100374.09;5082665;28;20035;-68
2021/08/10 02:36:48;;;;;;;13.20;8.52;;;;;;;14.19;84.68;100369.88;5082547;28;20399;-69
2021/08/10 02:39:14;;;;;;;19.85;10.30;;;;;;;14.19;84.75;100376.84;5082618;28;20051;-68
2021/08/10 02:41:41;;;;;;;19.60;9.45;;;;;;;14.11;84.76;100370.06;5082837;28;20031;-68
2021/08/10 02:44:10;;;;;;;15.55;7.97;;;;;;;14.10;85.07;100367.50;5086249;28;20020;-68
2021/08/10 02:46:35;;;;;;;14.27;9.27;;;;;;;14.06;84.98;100378.88;5086158;28;20031;-69
2021/08/10 02:49:01;;;;;;;15.88;8.57;;;;;;;14.02;85.15;100378.13;5086176;28;20024;-68
2021/08/10 02:51:27;;;;;;;13.52;8.50;;;;;;;13.98;85.28;100379.06;5086243;28;20027;-69
2021/08/10 02:53:52;;;;;;;19.85;9.20;;;;;;;14.00;85.34;100372.06;5086174;28;20024;-69
2021/08/10 02:56:29;;;;;;;16.13;9.43;;;;;;;13.94;85.49;100385.25;5084658;28;20032;-69
2021/08/10 02:59:16;;;;;;;17.83;8.45;;;;;;;13.96;85.41;100375.66;5085926;28;20350;-69
2021/08/10 03:02:24;;;;;;;14.98;8.63;;;;;;;13.99;85.28;100376.41;5085964;28;20032;-69
2021/08/10 03:05:07;;;;;;;19.20;10.20;;;;;;;13.97;85.23;100372.16;5084356;28;20033;-69
2021/08/10 03:07:33;;;;;;;13.88;8.38;;;;;;;13.94;85.53;100370.47;5084454;28;20477;-69
2021/08/10 03:10:01;;;;;;;18.95;9.90;;;;;;;13.87;86.15;100361.06;5084675;28;20060;-69
2021/08/10 03:12:32;;;;;;;20.13;8.93;;;;;;;13.88;86.03;100368.84;5084771;28;20378;-69
2021/08/10 03:14:58;;;;;;;19.27;9.60;;;;;;;13.93;86.09;100370.50;5084564;28;20025;-70
2021/08/10 03:17:32;;;;;;;17.70;9.85;;;;;;;13.95;86.05;100359.13;5083371;28;20066;-67
2021/08/10 03:19:59;;;;;;;24.23;11.32;;;;;;;13.97;86.00;100356.47;5084595;28;20461;-69
2021/08/10 03:22:27;;;;;;;19.17;9.75;;;;;;;13.99;85.98;100365.16;5085261;28;20052;-68
2021/08/10 03:24:55;;;;;;;15.48;9.52;;;;;;;14.00;86.14;100361.63;5084285;28;20047;-69
2021/08/10 03:27:23;;;;;;;17.30;9.10;;;;;;;14.03;86.14;100363.28;5084884;28;20040;-68
2021/08/10 03:29:48;;;;;;;25.40;9.60;;;;;;;14.03;86.10;100360.69;5084559;28;20024;-68
2021/08/10 03:32:14;;;;;;;13.80;8.32;;;;;;;14.05;86.01;100356.31;5084958;28;20381;-68
2021/08/10 03:34:41;;;;;;;15.98;9.15;;;;;;;14.10;86.07;100357.94;5085226;28;20032;-68
2021/08/10 03:37:06;;;;;;;21.90;10.15;;;;;;;14.12;86.04;100350.06;5085300;28;20024;-68
2021/08/10 03:39:32;;;;;;;16.80;9.02;;;;;;;14.15;85.99;100359.56;5084983;28;20025;-68
2021/08/10 03:41:59;;;;;;;13.82;9.07;;;;;;;14.18;86.06;100359.47;5085296;28;20021;-68
2021/08/10 03:44:25;;;;;;;14.52;9.48;;;;;;;14.16;86.12;100356.03;5085084;28;20086;-68
2021/08/10 03:46:51;;;;;;;16.02;9.32;;;;;;;14.16;86.15;100361.25;5083771;28;20366;-68
2021/08/10 03:49:21;;;;;;;15.63;9.45;;;;;;;14.17;86.05;100357.78;5084825;28;20042;-69
2021/08/10 03:51:47;;;;;;;20.55;10.70;;;;;;;14.15;86.03;100365.66;5085131;28;20021;-68
2021/08/10 03:54:12;;;;;;;22.33;9.35;;;;;;;14.17;86.02;100353.38;5084711;28;20021;-69
2021/08/10 03:56:39;;;;;;;15.15;8.90;;;;;;;14.22;85.97;100361.09;5083479;28;20081;-70
2021/08/10 03:59:07;;;;;;;14.90;8.27;;;;;;;14.23;85.93;100362.84;5084616;28;20024;-67
2021/08/10 04:01:34;;;;;;;15.85;8.45;;;;;;;14.25;86.23;100361.03;5083328;28;20028;-68
2021/08/10 04:04:00;;;;;;;13.93;8.15;;;;;;;14.35;85.90;100364.28;5066764;28;20020;-68
2021/08/10 04:06:27;;;;;;;17.58;8.18;;;;;;;14.42;86.18;100367.59;5084534;28;20017;-69
2021/08/10 04:08:52;;;;;;;11.07;8.15;;;;;;;14.57;86.05;100364.59;5084649;28;20040;-69
2021/08/10 04:11:19;;;;;;;16.00;9.10;;;;;;;14.65;85.36;100363.56;5083259;28;20039;-69
2021/08/10 04:13:49;;;;;;;19.88;8.52;;;;;;;14.61;85.08;100363.63;5084524;28;20028;-69
2021/08/10 04:16:17;;;;;;;11.00;7.65;;;;;;;14.58;84.98;100363.72;5084491;28;20012;-69
2021/08/10 04:18:43;;;;;;;16.73;8.68;;;;;;;14.58;84.96;100357.63;5084162;28;20041;-68
2021/08/10 04:21:08;;;;;;;15.75;7.97;;;;;;;14.58;84.48;100355.88;5084217;28;20058;-69
2021/08/10 04:23:34;;;;;;;18.48;8.20;;;;;;;14.57;84.57;100363.75;5084315;28;20044;-69
2021/08/10 04:26:00;;;;;;;15.60;7.68;;;;;;;14.55;84.35;100366.41;5083982;28;20028;-71
2021/08/10 04:28:25;;;;;;;14.18;8.27;;;;;;;14.48;84.53;100357.88;5083849;28;20028;-70
2021/08/10 04:30:51;;;;;;;16.05;8.18;;;;;;;14.45;84.88;100359.69;5083972;28;20074;-69
2021/08/10 04:33:16;;;;;;;10.07;7.95;;;;;;;14.57;84.68;100366.38;5084541;28;20035;-69
2021/08/10 04:35:42;;;;;;;12.60;7.60;;;;;;;14.58;84.48;100368.06;5083641;28;20024;-70
2021/08/10 04:38:08;;;;;;;17.95;8.50;;;;;;;14.63;84.07;100367.03;5083619;28;20028;-70
2021/08/10 04:40:33;;;;;;;15.38;8.25;;;;;;;14.49;84.34;100354.34;5082114;28;20031;-70
2021/08/10 04:42:59;;;;;;;15.93;7.80;;;;;;;14.63;84.56;100372.25;5083820;28;20028;-69
2021/08/10 04:45:25;;;;;;;10.90;6.78;;;;;;;14.89;85.00;100374.28;5082503;28;20020;-69
2021/08/10 04:47:52;;;;;;;12.90;6.75;;;;;;;15.10;84.33;100365.84;5083459;28;20185;-68
2021/08/10 04:50:19;;;;;;;8.82;6.35;;;;;;;15.30;83.83;100367.03;5083866;28;20464;-69
2021/08/10 04:52:44;;;;;;;15.30;7.43;;;;;;;15.30;82.97;100367.03;5084002;28;20025;-69
2021/08/10 04:55:10;;;;;;;11.70;7.15;;;;;;;15.28;82.81;100373.19;5083692;28;20035;-69
2021/08/10 04:57:35;;;;;;;18.25;7.70;;;;;;;15.29;82.47;100370.53;5082408;28;20032;-69
2021/08/10 05:00:01;;;;;;;17.17;7.35;;;;;;;15.19;82.14;100376.94;5083538;28;20026;-69
2021/08/10 05:02:26;;;;;;;11.70;7.15;;;;;;;15.16;82.30;100379.66;5082599;28;20030;-69
2021/08/10 05:04:52;;;;;;;13.02;6.47;;;;;;;15.12;82.33;100378.88;5083135;28;20024;-69
2021/08/10 05:07:17;;;;;;;13.95;7.13;;;;;;;15.09;82.67;100382.44;5083530;28;20039;-69
2021/08/10 05:09:43;;;;;;;10.95;6.40;;;;;;;15.20;82.19;100379.50;5083546;28;20025;-69
2021/08/10 05:12:08;;;;;;;16.23;7.70;;;;;;;15.20;81.96;100383.88;5083696;28;20024;-69
2021/08/10 05:14:34;;;;;;;13.07;6.43;;;;;;;15.24;82.11;100378.50;5083787;28;20024;-68
2021/08/10 05:16:59;;;;;;;21.23;7.82;;;;;;;15.28;82.04;100383.66;5083193;28;20111;-68
2021/08/10 05:19:25;;;;;;;12.93;6.40;;;;;;;15.20;82.24;100370.81;5082226;28;20052;-68
2021/08/10 05:21:51;;;;;;;9.70;6.05;;;;;;;15.31;81.90;100383.56;5083660;28;20520;-69
2021/08/10 05:24:16;;;;;;;17.27;7.15;;;;;;;15.29;81.80;100388.00;5083283;28;20028;-69
2021/08/10 05:26:42;;;;;;;10.55;6.53;;;;;;;15.32;81.09;100388.75;5082075;28;20020;-69
2021/08/10 05:29:07;;;;;;;10.70;6.15;;;;;;;15.34;80.78;100386.97;5083498;28;20031;-69
2021/08/10 05:31:32;;;;;;;6.35;4.93;;;;;;;15.28;80.73;100379.28;5083349;28;20036;-68
2021/08/10 05:33:58;;;;;;;10.88;4.90;;;;;;;15.25;81.07;100389.84;5083474;28;20020;-69
2021/08/10 05:36:23;;;;;;;9.35;5.43;;;;;;;15.16;81.09;100384.88;5083363;28;20035;-68
2021/08/10 05:38:50;;;;;;;13.02;6.15;;;;;;;15.22;81.03;100389.94;5083054;28;20035;-69
2021/08/10 05:41:16;;;;;;;8.88;5.60;;;;;;;15.23;80.88;100382.03;5083391;28;20040;-68
2021/08/10 05:43:41;;;;;;;9.00;5.40;;;;;;;15.21;80.99;100380.34;5083468;28;20055;-69
2021/08/10 05:46:07;;;;;;;9.20;5.95;;;;;;;15.29;80.39;100381.00;5083325;28;20025;-68
2021/08/10 05:48:32;;;;;;;10.40;6.18;;;;;;;15.20;80.82;100376.03;5083267;28;20515;-68
2021/08/10 05:51:00;;;;;;;13.52;6.05;;;;;;;15.16;81.40;100387.50;5081815;28;20052;-67
2021/08/10 05:53:25;;;;;;;15.10;6.07;;;;;;;15.21;81.32;100380.34;5081840;28;20100;-66
2021/08/10 05:55:50;;;;;;;10.25;6.32;;;;;;;15.27;81.46;100379.34;5083115;28;20020;-66
2021/08/10 05:58:15;;;;;;;12.60;7.05;;;;;;;15.38;81.73;100376.41;5083072;28;20070;-65
2021/08/10 06:00:41;;;;;;;10.30;5.85;;;;;;;15.46;81.11;100372.66;5083102;28;20024;-65
2021/08/10 06:03:06;;;;;;;12.93;6.68;;;;;;;15.53;80.52;100372.50;5081785;28;20046;-65
2021/08/10 06:05:32;;;;;;;11.90;5.68;;;;;;;15.49;80.25;100375.19;5083300;28;20037;-65
2021/08/10 06:07:57;;;;;;;12.18;6.68;;;;;;;15.44;80.25;100371.88;5081744;28;20032;-65
2021/08/10 06:10:22;;;;;;;9.10;6.22;;;;;;;15.48;80.19;100377.84;5083031;28;20377;-65
2021/08/10 06:12:48;;;;;;;10.75;6.10;;;;;;;15.47;80.51;100368.28;5083232;28;20042;-65
2021/08/10 06:15:13;;;;;;;5.80;3.88;;;;;;;15.70;79.45;100377.22;5082735;28;20017;-65
2021/08/10 06:17:38;;;;;;;13.02;6.25;;;;;;;15.65;79.41;100379.09;5084426;28;20537;-64
2021/08/10 06:20:05;;;;;;;8.52;5.95;;;;;;;15.47;80.45;100376.13;5086590;28;20044;-65
2021/08/10 06:22:30;;;;;;;10.75;5.82;;;;;;;15.46;80.35;100385.72;5086778;28;20040;-64
2021/08/10 06:24:55;;;;;;;8.85;4.93;;;;;;;15.46;80.53;100374.44;5086854;28;20021;-63
2021/08/10 06:27:22;;;;;;;10.93;5.32;;;;;;;15.56;79.84;100382.88;5086718;28;20023;-66
2021/08/10 06:29:48;;;;;;;8.20;5.38;;;;;;;15.51;80.03;100384.75;5086772;28;20044;-65
2021/08/10 06:32:14;;;;;;;8.48;5.32;;;;;;;15.55;79.76;100384.63;5086598;28;20078;-66
2021/08/10 06:34:39;;;;;;;8.45;4.80;;;;;;;15.56;79.07;100388.09;5086202;28;20035;-65
2021/08/10 06:37:05;;;;;;;8.10;4.97;;;;;;;15.59;78.70;100390.63;5086319;28;20024;-65
2021/08/10 06:39:30;;;;;;;8.82;5.43;;;;;;;15.47;79.54;100383.97;5086113;28;20045;-66
2021/08/10 06:41:55;;;;;;;10.90;5.72;;;;;;;15.43;79.75;100382.38;5086393;28;20032;-66
2021/08/10 06:44:21;;;;;;;8.23;5.25;;;;;;;15.46;79.86;100377.06;5086238;28;20088;-66
2021/08/10 06:46:46;;;;;;;13.43;5.88;;;;;;;15.45;79.93;100381.41;5086201;28;20027;-67
2021/08/10 06:49:11;;;;;;;11.50;6.05;;;;;;;15.40;80.59;100385.09;5086182;28;20046;-68
2021/08/10 06:51:37;;;;;;;8.50;6.25;;;;;;;15.42;80.81;100380.63;5086091;28;20107;-69
2021/08/10 06:54:03;;;;;;;13.25;6.82;;;;;;;15.46;80.99;100380.50;5086064;28;20039;-68
2021/08/10 06:56:28;;;;;;;14.70;6.50;;;;;;;15.55;80.39;100382.00;5086054;28;20103;-68
2021/08/10 06:58:53;;;;;;;10.82;6.35;;;;;;;15.57;80.75;100380.22;5085919;28;20031;-68
2021/08/10 07:01:19;;;;;;;11.25;5.85;;;;;;;15.61;80.77;100378.34;5084551;28;20393;-67
2021/08/10 07:03:44;;;;;;;12.20;6.75;;;;;;;15.65;80.95;100381.72;5086031;28;20079;-68
2021/08/10 07:06:11;;;;;;;16.00;7.15;;;;;;;15.68;80.96;100374.66;5086129;28;20039;-68
2021/08/10 07:08:37;;;;;;;9.77;6.47;;;;;;;15.78;80.83;100377.84;5084638;28;20016;-68
2021/08/10 07:11:02;;;;;;;8.73;5.15;;;;;;;15.91;80.16;100367.00;5085928;28;20039;-69
2021/08/10 07:13:27;;;;;;;9.40;5.22;;;;;;;16.02;79.21;100371.91;5085814;28;20029;-68
2021/08/10 07:15:53;;;;;;;11.05;5.88;;;;;;;15.92;79.56;100366.06;5085777;28;20043;-68
2021/08/10 07:18:18;;;;;;;8.32;5.72;;;;;;;16.02;79.08;100375.41;5085467;28;20074;-68
2021/08/10 07:20:43;;;;;;;9.65;6.18;;;;;;;15.93;79.55;100368.66;5085792;28;20055;-68
2021/08/10 07:23:09;;;;;;;13.90;6.60;;;;;;;15.86;79.92;100360.13;5084230;28;20063;-68
2021/08/10 07:25:34;;;;;;;16.45;7.25;;;;;;;15.91;80.27;100365.22;5085790;28;20026;-68
2021/08/10 07:27:59;;;;;;;11.48;7.40;;;;;;;16.04;80.03;100363.09;5084387;28;20039;-68
2021/08/10 07:30:25;;;;;;;14.23;7.10;;;;;;;15.98;80.14;100352.81;5084410;28;20024;-67
2021/08/10 07:32:50;;;;;;;12.25;7.68;;;;;;;16.13;79.73;100372.44;5083408;28;20047;-66
2021/08/10 07:35:16;;;;;;;11.82;7.65;;;;;;;16.08;80.58;100364.72;5085600;28;20028;-64
2021/08/10 07:37:42;;;;;;;11.48;7.85;;;;;;;15.98;80.90;100363.28;5085493;28;20035;-65
2021/08/10 07:40:13;;;;;;;13.00;8.43;;;;;;;15.95;80.92;100373.84;5085483;28;20017;-65
2021/08/10 07:42:39;;;;;;;12.48;8.68;;;;;;;15.87;81.42;100379.31;5085471;28;20033;-65
2021/08/10 07:45:05;;;;;;;11.73;8.00;;;;;;;15.92;81.25;100371.31;5085417;28;20031;-65
2021/08/10 07:47:32;;;;;;;10.02;6.25;;;;;;;15.86;81.39;100375.81;5085058;28;20044;-64
2021/08/10 07:49:58;;;;;;;15.68;7.82;;;;;;;15.82;81.30;100378.59;5085338;28;20025;-64
2021/08/10 07:52:23;;;;;;;12.13;7.85;;;;;;;15.84;81.33;100385.50;5084007;28;20030;-64
2021/08/10 07:54:49;;;;;;;11.38;7.55;;;;;;;15.74;81.85;100377.06;5085235;28;20024;-64
2021/08/10 07:57:14;;;;;;;9.65;7.65;;;;;;;15.77;81.65;100383.13;5085052;28;20024;-63
2021/08/10 07:59:39;;;;;;;11.35;8.10;;;;;;;15.67;82.09;100374.69;5084703;28;20024;-64
2021/08/10 08:02:05;;;;;;;15.63;8.65;;;;;;;15.71;81.84;100377.16;5085067;28;20033;-64
2021/08/10 08:04:34;;;;;;;10.50;8.25;;;;;;;15.76;81.61;100374.41;5084998;28;20029;-64
2021/08/10 08:07:00;;;;;;;11.27;7.53;;;;;;;15.68;82.06;100373.78;5084931;28;20047;-64
2021/08/10 08:09:25;;;;;;;11.82;8.30;;;;;;;15.67;82.19;100369.47;5084797;28;20032;-63
2021/08/10 08:11:50;;;;;;;14.45;8.32;;;;;;;15.74;81.55;100366.59;5084708;28;20021;-63
2021/08/10 08:14:19;;;;;;;13.20;8.15;;;;;;;15.69;81.89;100362.41;5084560;28;20035;-64
2021/08/10 08:16:45;;;;;;;16.02;9.07;;;;;;;15.65;82.15;100359.03;5084672;28;20028;-64
2021/08/10 08:19:10;;;;;;;10.63;6.63;;;;;;;15.64;82.25;100367.78;5084248;28;20032;-64
2021/08/10 08:21:36;;;;;;;10.05;7.97;;;;;;;15.65;82.08;100351.19;5083987;28;20139;-64
2021/08/10 08:24:01;;;;;;;13.57;7.70;;;;;;;15.68;81.98;100373.78;5083701;28;20035;-64
2021/08/10 08:26:26;;;;;;;9.57;6.93;;;;;;;15.70;82.19;100369.38;5083440;28;20032;-64
2021/08/10 08:28:52;;;;;;;14.25;7.65;;;;;;;15.73;82.28;100372.72;5083484;28;20020;-64
2021/08/10 08:31:17;;;;;;;11.30;7.35;;;;;;;15.76;82.47;100373.53;5083815;28;20040;-64
2021/08/10 08:33:43;;;;;;;10.20;7.40;;;;;;;15.84;82.55;100374.16;5083281;28;20369;-64
2021/08/10 08:36:08;;;;;;;9.88;6.65;;;;;;;16.00;82.21;100371.09;5083101;28;20028;-64
2021/08/10 08:38:33;;;;;;;7.13;5.10;;;;;;;16.14;82.10;100373.28;5083205;28;20112;-65
2021/08/10 08:40:59;;;;;;;8.55;5.65;;;;;;;16.26;80.21;100361.56;5083103;28;20029;-65
2021/08/10 08:43:24;;;;;;;7.30;5.25;;;;;;;16.22;79.61;100360.78;5083932;28;20093;-66
2021/08/10 08:45:50;;;;;;;6.18;4.50;;;;;;;16.16;79.41;100363.59;5083713;28;20024;-67
2021/08/10 08:48:16;;;;;;;9.63;4.55;;;;;;;16.12;79.59;100362.84;5083994;28;20409;-65
2021/08/10 08:50:44;;;;;;;8.60;4.78;;;;;;;16.13;78.84;100361.97;5083827;28;20024;-64
2021/08/10 08:53:12;;;;;;;6.20;4.57;;;;;;;16.14;79.59;100368.03;5084081;28;20043;-64
2021/08/10 08:55:41;;;;;;;7.97;4.80;;;;;;;16.19;79.72;100360.88;5084086;28;20632;-64
2021/08/10 08:58:07;;;;;;;6.47;4.40;;;;;;;16.19;79.21;100367.00;5083878;28;20035;-64
2021/08/10 09:00:32;;;;;;;7.30;3.70;;;;;;;16.28;78.48;100371.06;5083406;28;20024;-65
2021/08/10 09:02:58;;;;;;;5.20;3.75;;;;;;;16.19;78.58;100366.13;5083948;28;20028;-65
2021/08/10 09:05:23;;;;;;;6.38;4.70;;;;;;;16.12;78.72;100365.47;5082186;28;20020;-65
2021/08/10 09:07:49;;;;;;;6.57;4.38;;;;;;;16.13;78.36;100363.72;5083777;28;20354;-64
2021/08/10 09:10:17;;;;;;;7.70;4.38;;;;;;;16.07;78.64;100370.84;5083794;28;20039;-65
2021/08/10 09:12:53;;;;;;;5.75;3.90;;;;;;;15.96;78.61;100354.59;5083836;28;20027;-65
2021/08/10 09:15:29;;;;;;;5.40;3.50;;;;;;;16.00;78.92;100368.47;5083455;28;20028;-65
2021/08/10 09:17:55;;;;;;;6.13;4.40;;;;;;;15.98;78.95;100372.00;5083507;28;20076;-65
2021/08/10 09:20:22;;;;;;;7.68;4.00;;;;;;;15.89;79.36;100368.78;5083407;28;20075;-66
2021/08/10 09:22:52;;;;;;;8.52;3.92;;;;;;;15.83;79.51;100364.63;5083821;28;20032;-66
2021/08/10 09:25:17;;;;;;;6.18;3.72;;;;;;;15.88;79.40;100365.31;5083621;28;20024;-65
2021/08/10 09:27:44;;;;;;;6.82;3.75;;;;;;;15.86;79.10;100364.53;5083562;28;20105;-65
2021/08/10 09:30:10;;;;;;;8.07;4.85;;;;;;;15.80;79.35;100368.16;5083308;28;20023;-64
2021/08/10 09:32:51;;;;;;;8.07;5.00;;;;;;;15.79;79.85;100352.50;5083448;28;20437;-64
2021/08/10 09:35:18;;;;;;;10.15;5.45;;;;;;;15.78;80.12;100359.53;5083427;28;20024;-64
2021/08/10 09:38:06;;;;;;;12.05;5.28;;;;;;;15.82;79.78;100353.28;5083554;28;20091;-65
2021/08/10 09:40:40;;;;;;;7.57;4.40;;;;;;;15.75;79.98;100341.28;5082162;28;20079;-65
2021/08/10 09:43:28;;;;;;;9.77;5.35;;;;;;;15.77;80.16;100344.72;5082256;28;20468;-65
2021/08/10 09:46:08;;;;;;;7.55;4.65;;;;;;;15.73;80.50;100340.47;5083315;28;20020;-65
2021/08/10 09:48:34;;;;;;;7.32;5.32;;;;;;;15.74;80.49;100334.34;5083271;28;20020;-63
2021/08/10 09:51:07;;;;;;;8.85;5.25;;;;;;;15.84;80.55;100335.78;5084117;28;20103;-63
2021/08/10 09:53:33;;;;;;;9.48;5.68;;;;;;;15.91;81.00;100335.56;5086309;28;20050;-63
2021/08/10 09:55:58;;;;;;;7.53;4.90;;;;;;;16.09;80.73;100342.00;5087419;28;20048;-64
2021/08/10 09:58:24;;;;;;;11.98;5.95;;;;;;;16.23;80.51;100331.94;5087413;28;20024;-64
2021/08/10 10:00:51;;;;;;;7.20;5.07;;;;;;;16.45;80.33;100327.72;5087072;28;20086;-64
2021/08/10 10:03:19;;;;;;;7.90;5.57;;;;;;;16.67;79.80;100334.84;5087117;28;20085;-64
2021/08/10 10:05:46;;;;;;;7.35;5.38;;;;;;;16.80;79.49;100328.25;5087209;28;20509;-63
2021/08/10 10:08:17;;;;;;;10.65;5.70;;;;;;;17.04;79.01;100332.66;5087197;28;20028;-65
2021/08/10 10:10:44;;;;;;;8.30;5.83;;;;;;;17.42;78.64;100337.41;5086973;28;20029;-64
2021/08/10 10:13:12;;;;;;;7.05;4.85;;;;;;;17.78;76.68;100342.13;5086928;28;20280;-64
2021/08/10 10:15:38;;;;;;;7.85;4.78;;;;;;;17.87;76.42;100345.31;5086741;28;20529;-65
2021/08/10 10:18:06;;;;;;;9.88;4.75;;;;;;;17.99;76.97;100336.94;5087044;28;20048;-65
2021/08/10 10:20:32;;;;;;;8.77;4.55;;;;;;;18.30;76.94;100335.72;5086725;28;20492;-66
2021/08/10 10:23:01;;;;;;;7.93;4.95;;;;;;;18.70;76.84;100327.88;5086988;28;20024;-66
2021/08/10 10:25:26;;;;;;;9.75;4.53;;;;;;;18.94;75.52;100314.56;5086578;28;20025;-66
2021/08/10 10:27:53;;;;;;;10.73;4.80;;;;;;;19.19;75.06;100325.75;5086582;28;20020;-67
2021/08/10 10:30:18;;;;;;;6.63;4.28;;;;;;;19.31;74.75;100325.19;5086705;28;20246;-67
2021/08/10 10:32:44;;;;;;;9.00;3.72;;;;;;;19.33;73.60;100325.13;5086669;28;20401;-67
2021/08/10 10:35:10;;;;;;;8.48;4.07;;;;;;;19.16;72.65;100336.44;5086482;28;20039;-66
2021/08/10 10:37:37;;;;;;;5.10;3.20;;;;;;;18.85;70.92;100330.72;5085016;28;20039;-66
2021/08/10 10:40:05;;;;;;;7.57;3.25;;;;;;;18.54;71.80;100330.31;5086378;28;20021;-66
2021/08/10 10:42:32;;;;;;;7.22;2.80;;;;;;;18.27;71.54;100342.84;5086203;28;20396;-66
2021/08/10 10:44:58;;;;;;;4.82;3.20;;;;;;;17.92;70.28;100348.63;5086309;28;20028;-66
2021/08/10 10:47:24;;;;;;;7.38;4.00;;;;;;;17.40;71.69;100365.47;5084962;28;20312;-66
2021/08/10 10:49:55;;;;;;;7.75;3.25;;;;;;;16.90;72.87;100362.84;5086327;28;20089;-68
2021/08/10 10:52:21;;;;;;;14.13;3.77;;;;;;;16.40;74.27;100374.19;5086293;28;20028;-69
2021/08/10 10:54:47;;;;;;;10.00;4.28;;;;;;;15.97;75.60;100372.03;5085999;28;20130;-69
2021/08/10 10:57:31;;;;;;;7.18;4.28;;;;;;;15.63;76.33;100363.47;5084948;28;20020;-69
2021/08/10 11:00:05;;;;;;;10.23;4.82;;;;;;;15.36;77.60;100351.16;5084417;28;20024;-70
2021/08/10 11:02:32;;;;;;;12.95;4.70;;;;;;;15.15;78.63;100342.16;5084335;28;20040;-69
2021/08/10 11:05:12;;;;;;;13.10;4.85;;;;;;;15.05;79.29;100336.34;5085816;28;20025;-68
2021/08/10 11:07:40;;;;;;;10.25;5.35;;;;;;;14.95;80.10;100334.91;5085975;28;20020;-69
2021/08/10 11:10:35;;;;;;;7.63;5.10;;;;;;;14.92;80.41;100329.75;5085824;28;20025;-68
2021/08/10 11:13:01;;;;;;;11.05;5.65;;;;;;;14.92;80.95;100337.59;5084616;28;20098;-68
2021/08/10 11:15:45;;;;;;;11.48;5.45;;;;;;;14.90;81.24;100337.66;5085740;28;20024;-68
2021/08/10 11:18:10;;;;;;;10.75;5.38;;;;;;;14.89;81.29;100340.31;5085580;28;20117;-68
2021/08/10 11:20:41;;;;;;;11.05;5.35;;;;;;;14.79;81.94;100337.91;5085675;28;20543;-68